Time;durP1;ratioP1;P1;durP2;ratioP2;P2;SDS_P1;SDS_P2;PMS_P1;PMS_P2;Temp;Humidity;BMP_temperature;BMP_pressure;BME280_temperature;BME280_humidity;BME280_pressure;Samples;Min_cycle;Max_cycle;Signal;HPM_P1;HPM_P2
2022/06/02 00:00:12;;;;;;;7.85;5.47;;;16.10;99.90;;;;;;5099530;28;20075;-73
2022/06/02 00:03:03;;;;;;;7.05;5.97;;;16.00;99.90;;;;;;5103390;28;20054;-73
2022/06/02 00:05:50;;;;;;;10.90;7.88;;;16.00;99.90;;;;;;5090577;28;20608;-73
2022/06/02 00:08:25;;;;;;;15.45;8.30;;;15.90;99.90;;;;;;5098682;28;20051;-73
2022/06/02 00:11:03;;;;;;;10.02;8.18;;;15.90;99.90;;;;;;5080985;28;20039;-73
2022/06/02 00:13:41;;;;;;;18.08;10.13;;;15.80;99.90;;;;;;5091084;28;20515;-73
2022/06/02 00:16:14;;;;;;;16.17;11.48;;;15.80;99.90;;;;;;5092945;28;20058;-73
2022/06/02 00:18:47;;;;;;;27.20;17.70;;;15.80;99.90;;;;;;5089934;28;20139;-73
2022/06/02 00:21:28;;;;;;;16.38;11.98;;;15.80;99.90;;;;;;5090579;28;20557;-73
2022/06/02 00:24:00;;;;;;;28.30;16.02;;;15.80;99.90;;;;;;5105498;28;20051;-73
2022/06/02 00:26:39;;;;;;;30.45;19.67;;;15.70;99.90;;;;;;5104858;28;20546;-73
2022/06/02 00:29:27;;;;;;;38.65;19.52;;;15.80;99.90;;;;;;5087697;28;20596;-73
2022/06/02 00:32:00;;;;;;;32.05;18.33;;;15.80;99.90;;;;;;5086586;28;20124;-73
2022/06/02 00:34:36;;;;;;;32.28;18.13;;;15.80;99.90;;;;;;5090239;28;20093;-73
2022/06/02 00:37:18;;;;;;;27.33;18.77;;;15.90;99.90;;;;;;5081058;28;20072;-73
2022/06/02 00:39:47;;;;;;;33.83;18.70;;;15.90;99.90;;;;;;5089318;28;20400;-74
2022/06/02 00:42:33;;;;;;;27.60;17.08;;;15.90;99.90;;;;;;5088507;28;20075;-74
2022/06/02 00:45:06;;;;;;;22.38;14.93;;;15.90;99.90;;;;;;5093170;28;20043;-74
2022/06/02 00:47:47;;;;;;;26.52;16.38;;;15.90;99.90;;;;;;5091069;28;20048;-73
2022/06/02 00:50:30;;;;;;;26.80;17.25;;;16.00;99.90;;;;;;5088471;28;20507;-74
2022/06/02 00:53:06;;;;;;;27.85;18.33;;;16.00;99.90;;;;;;5097506;28;20081;-74
2022/06/02 00:58:35;;;;;;;40.33;22.30;;;16.00;99.90;;;;;;5089020;28;20052;-73
2022/06/02 01:01:11;;;;;;;35.47;24.73;;;16.00;99.90;;;;;;5084391;28;20055;-73
2022/06/02 01:03:42;;;;;;;32.00;23.27;;;16.10;99.90;;;;;;5103601;28;20156;-73
2022/06/02 01:06:34;;;;;;;24.13;21.05;;;16.00;99.90;;;;;;5100589;28;20500;-73
2022/06/02 01:09:12;;;;;;;22.70;19.02;;;16.10;99.90;;;;;;5104228;28;20503;-73
2022/06/02 01:11:48;;;;;;;22.15;18.58;;;16.10;99.90;;;;;;5109328;28;20549;-73
2022/06/02 01:14:32;;;;;;;29.42;19.02;;;16.20;99.90;;;;;;5095865;28;20040;-75
2022/06/02 01:17:09;;;;;;;28.70;19.92;;;16.20;99.90;;;;;;5097475;28;20085;-75
2022/06/02 01:19:57;;;;;;;29.38;20.52;;;16.30;99.90;;;;;;5089494;28;20082;-75
2022/06/02 01:23:18;;;;;;;32.03;23.27;;;16.30;99.90;;;;;;5089521;28;20040;-75
2022/06/02 01:26:18;;;;;;;29.33;21.80;;;16.30;99.90;;;;;;5064273;28;20063;-76
2022/06/02 01:28:53;;;;;;;29.63;21.15;;;16.40;99.90;;;;;;5108175;28;20139;-76
2022/06/02 01:31:35;;;;;;;30.17;20.30;;;16.40;99.90;;;;;;5089250;28;20044;-76
2022/06/02 01:34:11;;;;;;;27.30;18.77;;;16.40;99.90;;;;;;5107453;28;20430;-76
2022/06/02 01:36:46;;;;;;;30.38;18.55;;;16.40;99.90;;;;;;5111267;28;20059;-76
2022/06/02 01:39:28;;;;;;;27.02;15.68;;;16.40;99.90;;;;;;5102994;28;20437;-76
2022/06/02 01:42:05;;;;;;;20.33;15.10;;;16.40;99.90;;;;;;5103428;28;20044;-76
2022/06/02 01:44:41;;;;;;;22.17;14.60;;;16.40;99.90;;;;;;5092020;28;20052;-76
2022/06/02 01:47:17;;;;;;;23.48;15.00;;;16.50;99.90;;;;;;5092584;28;20048;-75
2022/06/02 01:49:57;;;;;;;25.73;15.07;;;16.50;99.90;;;;;;5092013;28;20675;-75
2022/06/02 01:52:43;;;;;;;7.15;4.70;;;16.50;99.90;;;;;;5093275;28;20048;-76
2022/06/02 01:55:37;;;;;;;7.72;5.40;;;16.50;99.90;;;;;;5091409;28;20161;-76
2022/06/02 01:58:17;;;;;;;9.07;5.88;;;16.60;99.90;;;;;;5093044;28;20052;-76
2022/06/02 02:00:45;;;;;;;4.47;4.00;;;16.60;99.90;;;;;;5103283;28;20058;-76
2022/06/02 02:03:20;;;;;;;4.93;4.45;;;16.70;99.90;;;;;;5109481;28;20428;-76
2022/06/02 02:06:02;;;;;;;4.00;3.60;;;16.70;99.90;;;;;;5074116;28;20470;-77
2022/06/02 02:08:59;;;;;;;4.00;3.53;;;16.70;99.90;;;;;;5091587;28;20039;-76
2022/06/02 02:11:38;;;;;;;4.28;3.80;;;16.60;99.90;;;;;;5091976;28;20041;-77
2022/06/02 02:14:13;;;;;;;5.65;3.80;;;16.50;99.90;;;;;;5091829;28;20059;-77
2022/06/02 02:16:52;;;;;;;7.22;4.53;;;16.40;99.90;;;;;;5097578;28;20044;-76
2022/06/02 02:19:32;;;;;;;10.07;4.10;;;16.30;99.90;;;;;;5098792;28;20043;-77
2022/06/02 02:22:09;;;;;;;8.07;4.07;;;16.20;99.90;;;;;;5099195;28;20051;-76
2022/06/02 02:24:49;;;;;;;5.65;3.58;;;16.10;99.90;;;;;;5113297;28;20047;-77
2022/06/02 02:27:21;;;;;;;6.85;4.07;;;16.10;99.90;;;;;;5085336;28;20079;-76
2022/06/02 02:29:57;;;;;;;5.93;4.25;;;16.10;99.90;;;;;;5092490;28;20108;-76
2022/06/02 02:32:47;;;;;;;5.53;4.32;;;16.10;99.90;;;;;;5101608;28;20048;-74
2022/06/02 02:35:25;;;;;;;4.70;4.35;;;16.00;99.90;;;;;;5097813;28;20052;-73
2022/06/02 02:37:58;;;;;;;8.70;4.38;;;16.00;99.90;;;;;;5103628;28;20047;-73
2022/06/02 02:40:30;;;;;;;9.18;4.20;;;15.80;99.90;;;;;;5100373;28;20586;-73
2022/06/02 02:43:01;;;;;;;8.93;4.45;;;15.80;99.90;;;;;;5099823;28;20039;-74
2022/06/02 02:45:40;;;;;;;11.20;5.95;;;15.70;99.90;;;;;;5101431;28;20146;-71
2022/06/02 02:48:18;;;;;;;10.15;5.97;;;15.60;99.90;;;;;;5110584;28;20048;-71
2022/06/02 02:50:53;;;;;;;5.55;4.53;;;15.50;99.90;;;;;;5111162;28;20044;-72
2022/06/02 02:53:25;;;;;;;5.30;4.80;;;15.30;99.90;;;;;;5095622;28;20140;-72
2022/06/02 02:56:01;;;;;;;8.13;5.03;;;15.20;99.90;;;;;;5097510;28;20048;-72
2022/06/02 02:58:38;;;;;;;9.85;5.63;;;15.10;99.90;;;;;;5112295;28;20396;-73
2022/06/02 03:01:10;;;;;;;7.28;5.32;;;15.10;99.90;;;;;;5111346;28;20055;-72
2022/06/02 03:03:43;;;;;;;15.98;6.13;;;14.90;99.90;;;;;;5090924;28;20051;-73
2022/06/02 03:06:26;;;;;;;10.05;5.57;;;14.90;99.90;;;;;;5093969;28;20054;-72
2022/06/02 03:09:05;;;;;;;8.00;4.78;;;14.80;99.90;;;;;;5088059;28;20142;-72
2022/06/02 03:11:52;;;;;;;14.85;5.65;;;14.70;99.90;;;;;;5096032;28;20399;-72
2022/06/02 03:14:29;;;;;;;11.15;5.85;;;14.60;99.90;;;;;;5095822;28;20512;-72
2022/06/02 03:17:02;;;;;;;11.75;6.88;;;14.60;99.90;;;;;;5106249;28;20047;-72
2022/06/02 03:19:37;;;;;;;10.32;6.18;;;14.50;99.90;;;;;;5090973;28;20050;-72
2022/06/02 03:22:18;;;;;;;7.43;6.13;;;14.40;99.90;;;;;;5090964;28;20131;-72
2022/06/02 03:24:53;;;;;;;7.05;5.45;;;14.40;99.90;;;;;;5094950;28;20503;-72
2022/06/02 03:27:33;;;;;;;6.70;5.95;;;14.40;99.90;;;;;;5100657;28;20056;-72
2022/06/02 03:30:13;;;;;;;7.15;5.25;;;14.30;99.90;;;;;;5104117;28;20043;-72
2022/06/02 03:33:05;;;;;;;6.93;5.55;;;14.30;99.90;;;;;;5097596;28;20055;-72
2022/06/02 03:35:41;;;;;;;11.32;5.60;;;14.30;99.90;;;;;;5094073;28;20048;-72
2022/06/02 03:38:26;;;;;;;9.80;5.80;;;14.40;99.90;;;;;;5098447;28;20102;-72
2022/06/02 03:41:11;;;;;;;8.25;6.28;;;14.40;99.90;;;;;;5088623;28;20052;-72
2022/06/02 03:43:51;;;;;;;8.30;7.30;;;14.40;99.90;;;;;;5100711;28;20087;-72
2022/06/02 03:46:33;;;;;;;8.55;7.13;;;14.40;99.90;;;;;;5090139;28;20135;-72
2022/06/02 03:49:30;;;;;;;7.60;6.70;;;14.40;99.90;;;;;;5091138;28;20085;-72
2022/06/02 03:52:15;;;;;;;9.77;6.68;;;14.40;99.90;;;;;;5093294;28;20058;-72
2022/06/02 03:54:59;;;;;;;9.38;7.13;;;14.40;99.90;;;;;;5071768;28;20043;-72
2022/06/02 03:58:00;;;;;;;11.50;7.20;;;14.40;99.90;;;;;;5091992;28;20500;-72
2022/06/02 04:00:32;;;;;;;9.60;8.15;;;14.50;99.90;;;;;;5069755;28;20052;-72
2022/06/02 04:03:03;;;;;;;6.95;6.35;;;14.50;99.90;;;;;;5107355;28;20112;-73
2022/06/02 04:05:54;;;;;;;11.65;7.10;;;14.60;99.90;;;;;;5095185;28;20404;-72
2022/06/02 04:08:38;;;;;;;7.40;6.28;;;14.60;99.90;;;;;;5096668;28;20108;-73
2022/06/02 04:11:17;;;;;;;10.30;6.88;;;14.60;99.90;;;;;;5106228;28;20046;-74
2022/06/02 04:13:53;;;;;;;11.90;7.00;;;14.60;99.90;;;;;;5110378;28;20469;-76
2022/06/02 04:16:49;;;;;;;8.13;6.80;;;14.60;99.90;;;;;;5111734;28;20075;-76
2022/06/02 04:22:37;;;;;;;8.02;6.45;;;14.80;99.90;;;;;;5090757;28;20538;-72
2022/06/02 04:25:29;;;;;;;7.82;6.95;;;14.80;99.90;;;;;;5104807;28;20055;-73
2022/06/02 04:28:08;;;;;;;9.27;8.02;;;14.90;99.90;;;;;;5105486;28;20534;-73
2022/06/02 04:30:44;;;;;;;7.63;6.82;;;15.00;99.90;;;;;;5090657;28;20048;-74
2022/06/02 04:33:17;;;;;;;9.95;7.28;;;15.10;99.90;;;;;;5089243;28;20080;-73
2022/06/02 04:35:54;;;;;;;10.13;7.60;;;15.10;99.90;;;;;;5091065;28;20313;-74
2022/06/02 04:38:34;;;;;;;9.93;7.55;;;15.10;99.90;;;;;;5099772;28;20180;-74
2022/06/02 04:41:11;;;;;;;9.63;8.68;;;15.10;99.90;;;;;;5110900;28;20089;-74
2022/06/02 04:43:48;;;;;;;7.82;7.20;;;15.10;99.90;;;;;;5090964;28;20044;-76
2022/06/02 04:46:34;;;;;;;10.15;8.32;;;15.10;99.90;;;;;;5094829;28;20047;-76
2022/06/02 04:49:09;;;;;;;11.52;7.65;;;15.10;99.90;;;;;;5090274;28;20059;-76
2022/06/02 04:51:52;;;;;;;10.25;8.32;;;15.10;99.90;;;;;;5089378;28;20052;-77
2022/06/02 04:54:30;;;;;;;9.38;8.35;;;15.10;99.90;;;;;;5082867;28;20143;-75
2022/06/02 04:57:03;;;;;;;13.30;8.55;;;15.20;99.90;;;;;;5101940;28;20055;-73
2022/06/02 04:59:38;;;;;;;8.90;8.15;;;15.40;99.90;;;;;;5088526;28;20048;-73
2022/06/02 05:02:18;;;;;;;9.68;8.68;;;15.40;99.90;;;;;;5091183;28;20056;-73
2022/06/02 05:04:52;;;;;;;8.73;7.93;;;15.40;99.90;;;;;;5091112;28;20044;-73
2022/06/02 05:07:26;;;;;;;10.55;9.32;;;15.50;99.90;;;;;;5102536;28;20146;-73
2022/06/02 05:10:03;;;;;;;9.60;8.70;;;15.50;99.90;;;;;;5109704;28;20114;-73
2022/06/02 05:12:43;;;;;;;9.38;8.35;;;15.50;99.90;;;;;;5110183;28;20393;-76
2022/06/02 05:15:20;;;;;;;9.43;8.63;;;15.70;99.90;;;;;;5091580;28;20106;-77
2022/06/02 05:18:08;;;;;;;9.45;8.50;;;15.90;99.90;;;;;;5076204;28;20569;-76
2022/06/02 05:20:55;;;;;;;11.25;9.18;;;16.10;99.90;;;;;;5093104;28;20052;-76
2022/06/02 05:23:55;;;;;;;10.02;9.02;;;16.20;99.90;;;;;;5096460;28;20036;-76
2022/06/02 05:26:58;;;;;;;9.23;8.35;;;16.20;99.90;;;;;;5097921;28;20435;-73
2022/06/02 05:29:56;;;;;;;9.88;9.07;;;16.20;99.90;;;;;;5082524;28;20043;-72
2022/06/02 05:33:13;;;;;;;9.10;8.30;;;16.30;99.90;;;;;;5101771;28;20555;-74
2022/06/02 05:36:20;;;;;;;13.45;9.52;;;16.30;99.90;;;;;;5094153;28;20048;-72
2022/06/02 05:39:06;;;;;;;10.98;9.57;;;16.50;99.90;;;;;;5093989;28;20508;-73
2022/06/02 05:41:53;;;;;;;11.52;10.40;;;16.70;99.90;;;;;;5098799;28;20084;-73
2022/06/02 05:44:31;;;;;;;11.50;10.40;;;16.80;99.90;;;;;;5104396;28;20142;-77
2022/06/02 05:47:21;;;;;;;11.98;10.90;;;16.90;99.90;;;;;;5104167;28;20051;-77
2022/06/02 05:50:00;;;;;;;12.05;10.05;;;16.90;99.90;;;;;;5112718;28;20069;-76
2022/06/02 05:52:36;;;;;;;11.32;10.30;;;17.00;99.90;;;;;;5098076;28;20392;-72
2022/06/02 05:55:33;;;;;;;11.02;10.02;;;17.20;99.90;;;;;;5097930;28;20048;-73
2022/06/02 05:58:18;;;;;;;11.52;10.55;;;17.20;99.90;;;;;;5092339;28;20532;-76
2022/06/02 06:00:58;;;;;;;11.27;10.18;;;17.30;99.90;;;;;;5092364;28;20448;-75
2022/06/02 06:03:58;;;;;;;10.43;9.52;;;17.20;99.90;;;;;;5110194;28;20048;-74
2022/06/02 06:06:33;;;;;;;11.30;10.30;;;17.30;99.90;;;;;;5075343;28;20079;-76
2022/06/02 06:09:09;;;;;;;11.57;10.48;;;17.40;99.90;;;;;;5111715;28;20048;-75
2022/06/02 06:12:00;;;;;;;11.98;10.40;;;17.60;99.90;;;;;;5102757;28;20048;-76
2022/06/02 06:14:37;;;;;;;12.95;10.85;;;17.80;99.90;;;;;;5088147;28;20078;-75
2022/06/02 06:17:17;;;;;;;11.75;10.75;;;17.90;99.90;;;;;;5100105;28;20074;-76
2022/06/02 06:20:12;;;;;;;11.48;10.38;;;18.10;99.90;;;;;;5100267;28;20139;-75
2022/06/02 06:23:07;;;;;;;12.27;11.15;;;18.10;99.90;;;;;;5068896;28;20563;-75
2022/06/02 06:25:57;;;;;;;11.70;10.48;;;18.10;99.90;;;;;;5078249;28;20048;-73
2022/06/02 06:28:30;;;;;;;16.63;11.65;;;18.10;99.90;;;;;;5077628;28;20048;-74
2022/06/02 06:31:02;;;;;;;13.80;10.73;;;18.00;99.90;;;;;;5100526;28;20055;-73
2022/06/02 06:34:01;;;;;;;17.13;11.10;;;18.00;99.90;;;;;;5081247;28;20051;-72
2022/06/02 06:36:48;;;;;;;11.80;10.70;;;17.90;99.90;;;;;;5095035;28;20540;-74
2022/06/02 06:39:27;;;;;;;14.43;10.18;;;18.40;99.90;;;;;;5100815;28;20089;-74
2022/06/02 06:42:20;;;;;;;10.90;9.80;;;19.00;99.90;;;;;;5078605;28;20047;-74
2022/06/02 06:44:54;;;;;;;11.82;10.63;;;19.10;99.90;;;;;;5093887;28;20660;-74
2022/06/02 06:47:29;;;;;;;17.80;10.35;;;18.80;99.90;;;;;;5097497;28;20578;-73
2022/06/02 06:50:04;;;;;;;11.27;10.20;;;18.60;99.90;;;;;;5094953;28;20051;-74
2022/06/02 06:53:03;;;;;;;11.50;10.40;;;18.30;99.90;;;;;;5098560;28;20043;-74
2022/06/02 06:55:47;;;;;;;10.40;9.50;;;18.10;99.90;;;;;;5075815;28;20048;-75
2022/06/02 06:58:28;;;;;;;11.82;10.63;;;18.10;99.90;;;;;;5101053;28;20317;-75
2022/06/02 07:01:04;;;;;;;10.57;9.55;;;18.50;99.90;;;;;;5104890;28;20056;-75
2022/06/02 07:03:42;;;;;;;10.75;9.75;;;19.40;99.90;;;;;;5099620;28;20052;-74
2022/06/02 07:06:17;;;;;;;11.65;8.90;;;19.80;99.90;;;;;;5101294;28;20039;-73
2022/06/02 07:08:51;;;;;;;12.30;9.18;;;20.30;99.90;;;;;;5105732;28;20574;-73
2022/06/02 07:14:21;;;;;;;10.13;9.13;;;22.40;99.90;;;;;;5091967;28;20044;-74
2022/06/02 07:16:55;;;;;;;9.88;9.00;;;22.90;99.90;;;;;;5103963;28;20047;-74
2022/06/02 07:19:32;;;;;;;9.52;8.57;;;22.30;99.90;;;;;;5108289;28;20059;-74
2022/06/02 07:22:06;;;;;;;9.63;8.27;;;21.80;99.90;;;;;;5106895;28;20055;-74
2022/06/02 07:24:40;;;;;;;8.77;7.80;;;22.00;99.90;;;;;;5095364;28;20043;-72
2022/06/02 07:27:18;;;;;;;9.10;8.07;;;22.20;99.90;;;;;;5099865;28;20075;-75
2022/06/02 07:30:21;;;;;;;8.93;8.13;;;22.80;99.90;;;;;;5090741;28;20503;-74
2022/06/02 07:33:19;;;;;;;9.02;8.13;;;23.50;99.90;;;;;;5087803;28;20036;-75
2022/06/02 07:36:13;;;;;;;9.65;8.70;;;24.10;99.90;;;;;;5072326;28;20043;-74
2022/06/02 07:39:16;;;;;;;7.88;7.18;;;24.10;99.90;;;;;;5099364;28;20044;-74
2022/06/02 07:41:56;;;;;;;;;;;24.50;99.90;;;;;;5100961;28;20039;-73
2022/06/02 07:45:04;;;;;;;11.93;6.95;;;24.40;99.90;;;;;;5102039;28;20008;-74
2022/06/02 07:47:45;;;;;;;9.98;7.15;;;24.30;99.90;;;;;;5110532;28;20047;-74
2022/06/02 07:50:20;;;;;;;6.75;6.20;;;24.80;99.90;;;;;;5087655;28;20043;-75
2022/06/02 07:52:59;;;;;;;12.43;6.25;;;24.90;97.70;;;;;;5103874;28;20039;-74
2022/06/02 07:55:32;;;;;;;7.68;6.70;;;25.30;94.20;;;;;;5107890;27;20043;-74
2022/06/02 07:58:12;;;;;;;7.03;6.45;;;24.80;94.10;;;;;;5127707;27;20100;-73
2022/06/02 08:00:51;;;;;;;7.93;6.13;;;24.20;96.00;;;;;;5095987;28;20153;-73
2022/06/02 08:03:41;;;;;;;9.38;5.72;;;24.90;93.80;;;;;;5102536;28;20545;-72
2022/06/02 08:06:14;;;;;;;6.10;5.65;;;25.00;91.00;;;;;;5086164;28;20075;-73
2022/06/02 08:08:59;;;;;;;9.90;4.60;;;25.60;87.40;;;;;;5101486;28;20044;-73
2022/06/02 08:11:36;;;;;;;4.95;4.65;;;26.70;78.60;;;;;;5098527;28;20403;-74
2022/06/02 08:14:27;;;;;;;5.38;4.47;;;27.20;74.70;;;;;;5107523;28;20047;-73
2022/06/02 08:17:01;;;;;;;6.75;4.20;;;27.90;68.30;;;;;;5107981;28;20047;-75
2022/06/02 08:19:41;;;;;;;4.72;4.32;;;28.20;64.00;;;;;;5101446;28;20109;-74
2022/06/02 08:22:11;;;;;;;4.18;3.80;;;28.40;62.60;;;;;;5072419;28;20060;-73
2022/06/02 08:24:54;;;;;;;4.50;4.10;;;28.40;61.00;;;;;;5088524;28;20071;-73
2022/06/02 08:27:44;;;;;;;4.63;4.15;;;28.60;60.90;;;;;;5089369;28;20407;-74
2022/06/02 08:30:17;;;;;;;8.50;3.65;;;28.30;59.70;;;;;;5092569;28;20113;-74
2022/06/02 08:33:08;;;;;;;3.63;3.42;;;27.70;59.90;;;;;;5101393;28;20407;-74
2022/06/02 08:35:40;;;;;;;4.03;3.72;;;27.80;59.80;;;;;;5100723;28;20093;-73
2022/06/02 08:38:24;;;;;;;3.22;3.00;;;28.30;59.40;;;;;;5099405;28;20075;-75
2022/06/02 08:41:33;;;;;;;6.97;2.90;;;29.10;56.30;;;;;;5097859;28;20050;-74
2022/06/02 08:44:42;;;;;;;4.00;3.10;;;29.80;54.40;;;;;;5100813;28;20055;-76
2022/06/02 08:47:37;;;;;;;3.42;3.13;;;29.60;54.30;;;;;;5097440;28;20041;-75
2022/06/02 08:50:48;;;;;;;3.30;3.00;;;29.00;54.50;;;;;;5084884;28;20048;-76
2022/06/02 08:54:01;;;;;;;4.45;3.25;;;28.90;54.40;;;;;;5053676;28;20049;-74
2022/06/02 08:57:07;;;;;;;5.63;2.67;;;28.20;55.50;;;;;;5067518;28;20044;-73
2022/06/02 09:00:22;;;;;;;3.45;3.25;;;28.60;55.20;;;;;;5093615;28;20560;-75
2022/06/02 09:03:38;;;;;;;4.25;3.03;;;27.90;55.30;;;;;;5037008;28;20065;-75
2022/06/02 09:06:41;;;;;;;3.20;3.00;;;27.10;57.20;;;;;;5047017;28;20520;-75
2022/06/02 09:09:41;;;;;;;4.47;3.20;;;27.90;55.80;;;;;;5094247;28;20102;-74
2022/06/02 09:12:23;;;;;;;3.33;2.88;;;27.30;56.30;;;;;;5095654;28;20048;-74
2022/06/02 09:15:27;;;;;;;3.03;2.83;;;28.10;55.80;;;;;;5105247;28;20606;-74
2022/06/02 09:18:14;;;;;;;2.70;2.38;;;28.50;54.60;;;;;;5092423;28;20090;-73
2022/06/02 09:20:49;;;;;;;2.85;2.50;;;28.50;54.10;;;;;;5094927;28;20060;-74
2022/06/02 09:23:47;;;;;;;2.40;2.30;;;28.40;54.10;;;;;;5093483;28;20083;-74
2022/06/02 09:26:41;;;;;;;2.67;2.58;;;27.10;55.00;;;;;;5094506;28;20044;-75
2022/06/02 09:29:24;;;;;;;3.50;2.60;;;25.70;57.70;;;;;;5091841;28;20455;-75
2022/06/02 09:32:28;;;;;;;2.58;2.38;;;25.60;59.70;;;;;;5093599;28;20044;-75
2022/06/02 09:35:09;;;;;;;5.32;2.50;;;26.50;57.80;;;;;;5094965;28;20048;-74
2022/06/02 09:38:10;;;;;;;3.95;2.25;;;25.30;59.20;;;;;;5092662;28;20043;-75
2022/06/02 09:40:59;;;;;;;5.90;2.75;;;24.00;62.80;;;;;;5103795;28;20071;-75
2022/06/02 09:44:11;;;;;;;6.00;2.30;;;23.40;64.10;;;;;;5103269;28;20067;-75
2022/06/02 09:47:20;;;;;;;3.67;3.08;;;22.80;66.00;;;;;;5069865;28;20409;-74
2022/06/02 09:50:20;;;;;;;5.13;3.08;;;23.40;66.90;;;;;;5054209;28;20044;-74
2022/06/02 09:53:06;;;;;;;8.30;2.75;;;24.60;63.60;;;;;;5088060;28;20050;-76
2022/06/02 09:55:39;;;;;;;4.88;2.65;;;25.50;60.50;;;;;;5091575;28;20055;-76
2022/06/02 09:58:22;;;;;;;5.80;2.00;;;25.80;59.20;;;;;;5091426;28;20075;-75
2022/06/02 10:01:01;;;;;;;2.42;2.08;;;25.50;59.00;;;;;;5096036;28;20051;-73
2022/06/02 10:04:08;;;;;;;8.18;2.55;;;25.10;58.90;;;;;;5100631;28;20048;-74
2022/06/02 10:07:14;;;;;;;5.18;2.20;;;24.90;59.30;;;;;;5061790;28;20048;-74
2022/06/02 10:10:01;;;;;;;3.22;2.00;;;26.60;57.70;;;;;;5079286;28;20052;-74
2022/06/02 10:12:58;;;;;;;3.78;1.70;;;28.40;53.70;;;;;;5099832;28;20109;-74
2022/06/02 10:15:39;;;;;;;3.95;1.98;;;28.50;51.90;;;;;;5099857;28;20570;-74
2022/06/02 10:18:35;;;;;;;3.38;1.98;;;29.50;49.90;;;;;;5091222;28;20460;-74
2022/06/02 10:21:33;;;;;;;8.63;2.03;;;30.10;48.80;;;;;;5097391;28;20051;-75
2022/06/02 10:24:36;;;;;;;13.23;2.20;;;31.10;47.90;;;;;;5077658;28;20468;-74
2022/06/02 10:27:16;;;;;;;2.85;2.47;;;31.00;47.00;;;;;;5104707;28;20594;-75
2022/06/02 10:30:20;;;;;;;6.70;2.50;;;31.20;47.50;;;;;;5093890;28;20056;-75
2022/06/02 10:33:25;;;;;;;7.53;2.30;;;30.70;47.20;;;;;;5074079;28;20039;-74
2022/06/02 10:36:35;;;;;;;9.90;2.55;;;30.60;48.10;;;;;;5067754;28;20094;-73
2022/06/02 10:39:18;;;;;;;3.75;1.83;;;31.00;47.40;;;;;;5096404;28;20240;-74
2022/06/02 10:42:06;;;;;;;4.50;2.00;;;31.40;46.80;;;;;;5093591;28;20048;-75
2022/06/02 10:45:04;;;;;;;10.77;1.92;;;31.90;45.70;;;;;;5101548;28;20040;-73
2022/06/02 10:48:27;;;;;;;2.88;2.38;;;29.80;46.50;;;;;;5102247;28;20051;-72
2022/06/02 10:51:27;;;;;;;10.48;2.78;;;29.30;48.40;;;;;;5094206;28;20122;-74
2022/06/02 10:54:21;;;;;;;18.00;2.20;;;29.90;48.10;;;;;;5078032;28;20154;-74
2022/06/02 10:57:15;;;;;;;3.67;2.53;;;29.90;48.10;;;;;;5093953;28;20048;-72
2022/06/02 11:00:07;;;;;;;4.97;2.22;;;28.70;49.00;;;;;;5098865;28;20050;-72
2022/06/02 11:03:19;;;;;;;9.30;1.80;;;29.20;49.00;;;;;;5100623;28;20157;-74
2022/06/02 11:06:27;;;;;;;2.78;1.90;;;28.20;47.80;;;;;;5093350;27;20043;-73
2022/06/02 11:09:32;;;;;;;7.47;1.90;;;27.50;49.80;;;;;;5094253;28;20044;-72
2022/06/02 11:12:37;;;;;;;5.38;2.05;;;28.10;49.40;;;;;;5094937;28;20150;-73
2022/06/02 11:15:38;;;;;;;9.23;1.83;;;29.10;48.10;;;;;;5094406;28;20109;-73
2022/06/02 11:18:38;;;;;;;6.20;2.05;;;30.00;46.60;;;;;;5094316;28;20066;-72
2022/06/02 11:21:39;;;;;;;10.85;1.90;;;29.70;45.80;;;;;;5098390;28;20039;-74
2022/06/02 11:24:30;;;;;;;6.63;2.10;;;29.40;48.10;;;;;;5092012;28;20105;-73
2022/06/02 11:27:34;;;;;;;5.70;1.90;;;30.70;46.20;;;;;;5078265;28;20036;-74
2022/06/02 11:30:28;;;;;;;7.85;2.17;;;31.30;45.10;;;;;;5077533;28;20427;-75
2022/06/02 11:33:34;;;;;;;7.65;2.28;;;30.90;45.40;;;;;;5101662;28;20135;-72
2022/06/02 11:36:38;;;;;;;4.45;1.80;;;28.90;47.50;;;;;;5099085;28;20726;-74
2022/06/02 11:39:37;;;;;;;7.57;1.77;;;29.10;48.20;;;;;;5099872;28;20144;-74
2022/06/02 11:42:20;;;;;;;9.00;2.03;;;30.20;45.80;;;;;;5046038;28;20056;-72
2022/06/02 11:44:58;;;;;;;7.05;1.77;;;30.30;46.00;;;;;;5088074;28;20501;-72
2022/06/02 11:47:45;;;;;;;3.15;1.77;;;30.60;46.20;;;;;;5081131;28;20112;-72
2022/06/02 11:50:33;;;;;;;6.45;2.28;;;30.50;46.10;;;;;;5098588;28;20047;-76
2022/06/02 11:53:29;;;;;;;7.68;1.48;;;31.10;45.30;;;;;;5107909;28;20434;-76
2022/06/02 11:56:01;;;;;;;5.30;1.45;;;31.50;43.70;;;;;;5098200;28;20039;-75
2022/06/02 11:58:48;;;;;;;;;;;31.00;43.80;;;;;;5090185;28;20048;-75
2022/06/02 12:01:46;;;;;;;7.50;1.90;;;31.10;43.90;;;;;;5090837;28;19924;-74
2022/06/02 12:04:37;;;;;;;10.38;1.60;;;31.30;43.90;;;;;;5089849;28;20052;-75
2022/06/02 12:08:07;;;;;;;8.93;2.03;;;32.20;42.70;;;;;;5090208;28;20048;-74
2022/06/02 12:11:09;;;;;;;7.40;1.23;;;30.80;42.30;;;;;;5088917;28;20695;-74
2022/06/02 12:14:00;;;;;;;4.15;1.20;;;29.50;44.00;;;;;;5103209;28;20126;-72
2022/06/02 12:16:44;;;;;;;7.35;1.50;;;29.80;43.90;;;;;;5090550;28;20054;-74
2022/06/02 12:19:49;;;;;;;4.38;1.15;;;29.20;44.20;;;;;;5102125;28;20108;-74
2022/06/02 12:22:31;;;;;;;1.65;1.40;;;27.70;46.40;;;;;;5100908;28;20044;-72
2022/06/02 12:25:23;;;;;;;3.15;1.10;;;28.20;45.80;;;;;;5093738;28;20465;-73
2022/06/02 12:28:06;;;;;;;2.70;1.75;;;26.60;47.30;;;;;;5101350;28;20108;-74
2022/06/02 12:30:50;;;;;;;4.22;2.10;;;25.10;49.80;;;;;;5098541;28;20501;-75
2022/06/02 12:33:33;;;;;;;2.78;1.52;;;25.10;50.40;;;;;;5098477;28;20484;-76
2022/06/02 12:36:19;;;;;;;4.68;1.40;;;25.20;50.70;;;;;;5098759;28;20047;-72
2022/06/02 12:39:24;;;;;;;8.48;1.55;;;25.20;51.60;;;;;;5099692;28;20039;-76
2022/06/02 12:42:31;;;;;;;11.90;2.53;;;26.20;49.50;;;;;;5104768;28;20051;-76
2022/06/02 12:45:26;;;;;;;4.65;1.60;;;26.10;50.60;;;;;;5085192;28;20047;-76
2022/06/02 12:48:35;;;;;;;9.02;2.22;;;28.20;48.10;;;;;;5087868;28;20048;-76
2022/06/02 12:51:26;;;;;;;4.47;1.98;;;28.30;46.40;;;;;;5038807;28;20071;-74
2022/06/02 12:54:33;;;;;;;3.50;1.40;;;26.70;47.70;;;;;;5088056;28;20142;-76
2022/06/02 12:57:31;;;;;;;6.65;1.70;;;25.40;49.80;;;;;;5093571;28;20071;-76
2022/06/02 13:00:25;;;;;;;8.18;1.80;;;24.40;51.80;;;;;;5098967;28;20052;-77
2022/06/02 13:03:25;;;;;;;7.43;1.42;;;23.50;53.70;;;;;;5089173;28;20435;-76
2022/06/02 13:06:28;;;;;;;3.90;1.35;;;23.20;54.00;;;;;;5106366;28;20059;-76
2022/06/02 13:09:28;;;;;;;4.15;1.92;;;23.00;53.70;;;;;;5092606;28;20044;-74
2022/06/02 13:12:28;;;;;;;6.25;1.90;;;23.00;54.30;;;;;;5098286;28;20170;-75
2022/06/02 13:15:28;;;;;;;3.10;1.67;;;23.00;55.00;;;;;;5094235;28;20400;-74
2022/06/02 13:18:25;;;;;;;6.32;1.80;;;25.60;51.30;;;;;;5081142;28;20483;-73
2022/06/02 13:21:36;;;;;;;1.70;1.23;;;27.40;47.40;;;;;;5089139;28;20055;-72
2022/06/02 13:24:44;;;;;;;2.38;1.42;;;25.80;49.00;;;;;;5097778;28;20055;-74
2022/06/02 13:27:51;;;;;;;4.80;1.42;;;25.80;49.30;;;;;;5071360;28;20442;-73
2022/06/02 13:30:37;;;;;;;1.73;1.58;;;26.40;48.50;;;;;;5012584;28;20285;-73
2022/06/02 13:33:28;;;;;;;6.43;1.50;;;26.50;48.50;;;;;;5009894;28;20050;-73
2022/06/02 13:36:16;;;;;;;4.78;1.20;;;28.10;46.20;;;;;;5056090;28;20043;-72
2022/06/02 13:39:18;;;;;;;4.68;1.40;;;29.00;44.20;;;;;;5092210;28;20071;-73
2022/06/02 13:42:22;;;;;;;6.77;1.83;;;28.60;44.10;;;;;;5053697;28;20053;-74
2022/06/02 13:45:23;;;;;;;4.80;1.10;;;27.80;46.40;;;;;;5090964;28;20310;-74
2022/06/02 13:48:27;;;;;;;5.88;1.50;;;27.10;46.90;;;;;;5092065;28;20048;-73
2022/06/02 13:51:41;;;;;;;3.88;1.40;;;26.00;47.60;;;;;;5095275;28;20063;-72
2022/06/02 13:57:46;;;;;;;3.28;1.50;;;26.20;47.40;;;;;;5092830;28;20055;-73
2022/06/02 14:00:24;;;;;;;4.65;1.45;;;26.60;46.60;;;;;;5095576;28;20440;-74
2022/06/02 14:03:23;;;;;;;5.97;1.70;;;25.60;46.90;;;;;;5094563;28;20066;-74
2022/06/02 14:06:06;;;;;;;4.85;1.10;;;26.10;47.50;;;;;;5069336;28;20542;-74
2022/06/02 14:09:23;;;;;;;6.53;1.20;;;27.30;45.60;;;;;;5091941;28;20055;-74
2022/06/02 14:11:57;;;;;;;10.50;1.50;;;27.60;45.40;;;;;;5093951;28;20416;-74
2022/06/02 14:14:44;;;;;;;4.28;1.45;;;27.30;44.70;;;;;;5108166;28;20459;-74
2022/06/02 14:17:24;;;;;;;4.15;1.08;;;26.10;46.00;;;;;;5092903;28;20470;-74
2022/06/02 14:20:13;;;;;;;2.85;1.20;;;25.20;47.80;;;;;;5084707;28;20040;-74
2022/06/02 14:22:50;;;;;;;5.18;1.10;;;24.60;48.70;;;;;;5098755;28;20098;-75
2022/06/02 14:25:27;;;;;;;2.50;1.05;;;24.00;49.60;;;;;;5090382;28;20051;-75
2022/06/02 14:28:15;;;;;;;2.28;0.98;;;23.60;50.20;;;;;;5094267;28;20155;-76
2022/06/02 14:30:50;;;;;;;2.97;1.02;;;23.30;51.00;;;;;;5096149;28;20427;-74
2022/06/02 14:33:25;;;;;;;5.90;1.20;;;23.20;51.40;;;;;;5093277;28;20052;-75
2022/06/02 14:35:57;;;;;;;4.85;2.13;;;23.50;51.10;;;;;;5094229;28;20047;-75